createdAt,value
2022-11-08T00:01:29.069Z,2.33
2022-11-08T00:03:58.671Z,2.47
2022-11-08T00:06:43.856Z,2.53
2022-11-08T00:09:29.582Z,2.37
2022-11-08T00:12:14.832Z,2.30
2022-11-08T00:14:43.367Z,2.23
2022-11-08T00:17:11.366Z,2.07
2022-11-08T00:19:41.173Z,2.20
2022-11-08T00:22:09.092Z,2.40
2022-11-08T00:24:37.419Z,2.93
2022-11-08T00:27:05.488Z,2.67
2022-11-08T00:29:34.915Z,2.30
2022-11-08T00:32:02.859Z,2.70
2022-11-08T00:34:30.704Z,2.67
2022-11-08T00:37:00.144Z,2.30
2022-11-08T00:39:28.071Z,2.40
2022-11-08T00:41:55.942Z,2.50
2022-11-08T00:44:23.835Z,2.33
2022-11-08T00:46:51.654Z,3.00
2022-11-08T00:49:19.567Z,2.17
2022-11-08T00:51:47.554Z,2.60
2022-11-08T00:54:19.066Z,2.50
2022-11-08T00:56:47.079Z,2.30
2022-11-08T00:59:15.473Z,2.87
2022-11-08T01:01:44.015Z,2.20
2022-11-08T01:04:12.580Z,2.53
2022-11-08T01:06:41.089Z,2.60
2022-11-08T01:09:09.019Z,2.13
2022-11-08T01:11:39.177Z,2.50
2022-11-08T01:14:07.217Z,3.37
2022-11-08T01:16:35.264Z,4.00
2022-11-08T01:19:03.321Z,5.20
2022-11-08T01:21:31.942Z,5.10
2022-11-08T01:24:00.009Z,4.80
2022-11-08T01:26:29.472Z,5.43
2022-11-08T01:28:59.040Z,4.70
2022-11-08T01:31:27.994Z,4.63
2022-11-08T01:33:56.449Z,4.90
2022-11-08T01:36:25.991Z,4.90
2022-11-08T01:38:54.395Z,4.70
2022-11-08T01:41:23.030Z,4.43
2022-11-08T01:43:51.576Z,4.20
2022-11-08T01:46:48.005Z,4.37
2022-11-08T01:49:36.395Z,3.83
2022-11-08T01:52:08.809Z,4.03
2022-11-08T01:54:38.729Z,3.80
2022-11-08T01:57:08.119Z,3.70
2022-11-08T01:59:36.358Z,4.17
2022-11-08T02:02:05.946Z,3.97
2022-11-08T02:04:34.553Z,3.73
2022-11-08T02:07:02.536Z,4.80
2022-11-08T02:09:31.250Z,4.20
2022-11-08T02:11:59.132Z,3.90
2022-11-08T02:14:27.547Z,3.70
2022-11-08T02:16:56.095Z,3.80
2022-11-08T02:19:28.723Z,3.40
2022-11-08T02:21:57.564Z,3.63
2022-11-08T02:24:27.490Z,3.80
2022-11-08T02:26:55.449Z,3.20
2022-11-08T02:29:28.277Z,3.90
2022-11-08T02:31:56.602Z,3.67
2022-11-08T02:34:27.207Z,3.37
2022-11-08T02:36:55.680Z,3.30
2022-11-08T02:39:23.784Z,3.50
2022-11-08T02:41:53.708Z,3.13
2022-11-08T02:44:21.674Z,3.20
2022-11-08T02:46:50.017Z,3.90
2022-11-08T02:49:17.968Z,3.57
2022-11-08T02:51:46.550Z,3.67
2022-11-08T02:54:14.536Z,3.23
2022-11-08T02:56:42.914Z,3.17
2022-11-08T02:59:12.032Z,2.80
2022-11-08T03:01:40.159Z,3.30
2022-11-08T03:04:08.254Z,3.13
2022-11-08T03:06:36.425Z,3.60
2022-11-08T03:09:04.580Z,3.00
2022-11-08T03:11:32.611Z,3.00
2022-11-08T03:14:00.582Z,3.40
2022-11-08T03:16:30.916Z,3.37
2022-11-08T03:18:59.332Z,3.00
2022-11-08T03:21:27.883Z,2.97
2022-11-08T03:23:55.601Z,3.33
2022-11-08T03:26:23.294Z,3.10
2022-11-08T03:28:51.549Z,2.80
2022-11-08T03:31:19.257Z,3.30
2022-11-08T03:33:48.310Z,3.47
2022-11-08T03:36:16.048Z,2.73
2022-11-08T03:38:43.877Z,2.63
2022-11-08T03:41:11.840Z,2.73
2022-11-08T03:43:40.508Z,2.73
2022-11-08T03:46:08.419Z,3.80
2022-11-08T03:48:36.453Z,2.50
2022-11-08T03:51:06.157Z,2.40
2022-11-08T03:53:34.456Z,2.70
2022-11-08T03:56:02.643Z,2.60
2022-11-08T03:58:31.036Z,2.70
2022-11-08T04:00:59.256Z,2.90
2022-11-08T04:03:27.786Z,2.83
2022-11-08T04:05:56.281Z,2.47
2022-11-08T04:08:26.219Z,2.67
2022-11-08T04:10:55.697Z,2.80
2022-11-08T04:13:41.348Z,2.97
2022-11-08T04:16:11.789Z,2.53
2022-11-08T04:19:01.148Z,2.40
2022-11-08T04:21:28.828Z,3.30
2022-11-08T04:23:58.277Z,2.63
2022-11-08T04:26:26.163Z,2.83
2022-11-08T04:28:54.145Z,2.70
2022-11-08T04:31:22.510Z,2.30
2022-11-08T04:33:50.529Z,2.53
2022-11-08T04:36:18.591Z,2.47
2022-11-08T04:38:49.136Z,2.80
2022-11-08T04:41:19.773Z,2.87
2022-11-08T04:43:47.788Z,2.80
2022-11-08T04:46:17.135Z,2.30
2022-11-08T04:48:45.300Z,2.60
2022-11-08T04:51:13.810Z,2.97
2022-11-08T04:53:41.958Z,2.50
2022-11-08T04:56:11.165Z,2.20
2022-11-08T04:58:41.601Z,2.20
2022-11-08T05:01:10.848Z,2.80
2022-11-08T05:03:38.943Z,2.40
2022-11-08T05:06:08.359Z,2.60
2022-11-08T05:08:36.228Z,2.30
2022-11-08T05:11:04.971Z,2.53
2022-11-08T05:13:33.037Z,3.00
2022-11-08T05:16:02.806Z,2.57
2022-11-08T05:18:31.344Z,2.37
2022-11-08T05:21:17.769Z,2.20
2022-11-08T05:23:45.831Z,2.33
2022-11-08T05:26:13.756Z,2.60
2022-11-08T05:28:42.080Z,2.77
2022-11-08T05:31:11.373Z,2.37
2022-11-08T05:33:39.295Z,2.43
2022-11-08T05:36:08.456Z,3.10
2022-11-08T05:38:36.840Z,2.30
2022-11-08T05:41:05.197Z,2.40
2022-11-08T05:43:33.594Z,2.33
2022-11-08T05:46:01.437Z,2.50
2022-11-08T05:48:31.207Z,2.50
2022-11-08T05:50:59.213Z,2.70
2022-11-08T05:53:27.619Z,2.10
2022-11-08T05:55:58.744Z,2.50
2022-11-08T05:58:27.158Z,2.10
2022-11-08T06:01:00.933Z,2.50
2022-11-08T06:03:31.165Z,2.87
2022-11-08T06:06:03.062Z,2.40
2022-11-08T06:08:31.194Z,2.77
2022-11-08T06:11:03.536Z,2.17
2022-11-08T06:13:32.283Z,2.60
2022-11-08T06:16:02.133Z,2.30
2022-11-08T06:18:31.575Z,2.30
2022-11-08T06:20:59.554Z,2.50
2022-11-08T06:23:27.381Z,2.60
2022-11-08T06:25:55.552Z,2.30
2022-11-08T06:28:23.356Z,2.00
2022-11-08T06:30:51.451Z,2.73
2022-11-08T06:33:19.720Z,2.40
2022-11-08T06:35:49.836Z,2.50
2022-11-08T06:38:17.755Z,2.30
2022-11-08T06:40:46.480Z,2.37
2022-11-08T06:43:19.351Z,2.37
2022-11-08T06:45:47.809Z,2.47
2022-11-08T06:48:15.721Z,2.00
2022-11-08T06:50:44.055Z,2.60
2022-11-08T06:53:14.327Z,2.43
2022-11-08T06:55:42.782Z,2.60
2022-11-08T06:58:11.128Z,2.13
2022-11-08T07:00:39.688Z,2.10
2022-11-08T07:03:07.827Z,2.30
2022-11-08T07:05:36.507Z,2.17
2022-11-08T07:08:04.993Z,2.37
2022-11-08T07:10:34.886Z,2.83
2022-11-08T07:13:03.827Z,2.03
2022-11-08T07:15:32.243Z,2.30
2022-11-08T07:18:03.372Z,1.87
2022-11-08T07:20:31.165Z,2.53
2022-11-08T07:22:59.033Z,2.10
2022-11-08T07:25:27.636Z,2.37
2022-11-08T07:27:57.418Z,2.13
2022-11-08T07:30:25.224Z,2.33
2022-11-08T07:32:53.034Z,2.30
2022-11-08T07:35:21.151Z,2.10
2022-11-08T07:37:48.902Z,2.20
2022-11-08T07:40:16.801Z,2.20
2022-11-08T07:43:09.946Z,2.27
2022-11-08T07:45:34.311Z,2.17
2022-11-08T07:48:06.850Z,2.20
2022-11-08T07:50:39.321Z,2.13
2022-11-08T07:53:07.165Z,1.80
2022-11-08T07:55:36.935Z,2.00
2022-11-08T07:58:04.769Z,2.00
2022-11-08T08:00:36.249Z,1.83
2022-11-08T08:03:05.078Z,1.90
2022-11-08T08:05:35.110Z,2.13
2022-11-08T08:08:03.839Z,1.80
2022-11-08T08:10:31.910Z,1.73
2022-11-08T08:13:00.156Z,1.90
2022-11-08T08:15:27.884Z,2.40
2022-11-08T08:17:57.730Z,2.03
2022-11-08T08:20:25.644Z,1.90
2022-11-08T08:22:53.505Z,2.27
2022-11-08T08:25:21.473Z,1.80
2022-11-08T08:27:49.787Z,1.80
2022-11-08T08:30:18.359Z,2.03
2022-11-08T08:32:53.542Z,1.90
2022-11-08T08:35:27.115Z,1.80
2022-11-08T08:37:58.637Z,1.93
2022-11-08T08:40:26.798Z,1.93
2022-11-08T08:42:55.173Z,1.73
2022-11-08T08:45:23.245Z,2.10
2022-11-08T08:47:55.259Z,1.80
2022-11-08T08:50:23.377Z,1.70
2022-11-08T08:52:53.083Z,1.70
2022-11-08T08:55:21.000Z,2.00
2022-11-08T08:57:49.511Z,2.07
2022-11-08T09:03:06.105Z,2.07
2022-11-08T09:05:34.034Z,2.17
2022-11-08T09:08:03.670Z,2.10
2022-11-08T09:10:31.716Z,1.93
2022-11-08T09:12:59.769Z,1.80
2022-11-08T09:15:28.173Z,1.70
2022-11-08T09:17:56.014Z,1.60
2022-11-08T09:20:24.536Z,1.87
2022-11-08T09:22:55.337Z,1.70
2022-11-08T09:25:25.228Z,1.83
2022-11-08T09:27:55.373Z,1.87
2022-11-08T09:30:23.831Z,1.77
2022-11-08T09:33:00.679Z,1.80
2022-11-08T09:35:29.145Z,1.70
2022-11-08T09:37:57.101Z,1.87
2022-11-08T09:40:29.145Z,1.83
2022-11-08T09:43:03.003Z,1.60
2022-11-08T09:45:33.728Z,1.63
2022-11-08T09:48:05.234Z,1.43
2022-11-08T09:50:38.033Z,1.90
2022-11-08T09:53:12.389Z,1.60
2022-11-08T09:55:43.447Z,2.00
2022-11-08T09:58:20.141Z,1.70
2022-11-08T10:00:51.250Z,1.57
2022-11-08T10:03:19.782Z,1.70
2022-11-08T10:05:53.331Z,1.50
2022-11-08T10:08:25.680Z,1.60
2022-11-08T10:11:08.964Z,1.80
2022-11-08T10:13:40.033Z,1.53
2022-11-08T10:16:11.862Z,1.50
2022-11-08T10:19:03.873Z,1.63
2022-11-08T10:21:46.326Z,1.53
2022-11-08T10:24:16.983Z,1.67
2022-11-08T10:26:46.889Z,1.57
2022-11-08T10:29:20.228Z,1.40
2022-11-08T10:31:49.090Z,1.57
2022-11-08T10:34:18.567Z,1.57
2022-11-08T10:36:47.563Z,1.33
2022-11-08T10:39:17.437Z,2.00
2022-11-08T10:41:48.666Z,1.43
2022-11-08T10:44:17.535Z,1.50
2022-11-08T10:46:45.917Z,1.70
2022-11-08T10:49:19.069Z,1.53
2022-11-08T10:51:48.317Z,1.50
2022-11-08T10:54:41.905Z,2.03
2022-11-08T10:57:11.605Z,1.60
2022-11-08T10:59:39.471Z,1.90
2022-11-08T11:02:22.095Z,1.67
2022-11-08T11:04:50.077Z,1.80
2022-11-08T11:07:37.744Z,1.70
2022-11-08T11:10:19.576Z,1.40
2022-11-08T11:12:52.621Z,1.60
2022-11-08T11:15:20.580Z,1.40
2022-11-08T11:17:48.495Z,1.37
2022-11-08T11:20:22.190Z,1.60
2022-11-08T11:22:50.123Z,1.80
2022-11-08T11:25:20.294Z,1.73
2022-11-08T11:27:54.967Z,1.40
2022-11-08T11:30:29.891Z,1.53
2022-11-08T11:33:10.199Z,1.90
2022-11-08T11:35:44.228Z,1.40
2022-11-08T11:38:21.132Z,1.50
2022-11-08T11:40:49.630Z,1.60
2022-11-08T11:43:21.651Z,1.60
2022-11-08T11:45:53.149Z,1.20
2022-11-08T11:48:23.320Z,1.50
2022-11-08T11:50:51.708Z,1.57
2022-11-08T11:53:21.780Z,1.57
2022-11-08T11:56:03.370Z,1.70
2022-11-08T11:58:47.602Z,1.30
2022-11-08T12:01:18.944Z,1.40
2022-11-08T12:03:57.071Z,1.70
2022-11-08T12:06:32.491Z,1.90
2022-11-08T12:09:07.655Z,1.80
2022-11-08T12:11:45.833Z,1.70
2022-11-08T12:14:26.038Z,1.40
2022-11-08T12:16:58.300Z,1.80
2022-11-08T12:19:34.889Z,1.40
2022-11-08T12:22:06.919Z,1.80
2022-11-08T12:24:43.115Z,1.60
2022-11-08T12:27:15.443Z,1.50
2022-11-08T12:29:47.151Z,1.70
2022-11-08T12:32:22.451Z,1.40
2022-11-08T12:34:57.287Z,1.63
2022-11-08T12:37:34.866Z,1.63
2022-11-08T12:40:04.021Z,1.67
2022-11-08T12:42:39.925Z,1.80
2022-11-08T12:45:22.794Z,1.67
2022-11-08T12:47:54.632Z,1.70
2022-11-08T12:50:26.753Z,1.57
2022-11-08T12:53:07.619Z,1.50
2022-11-08T12:55:37.103Z,1.57
2022-11-08T12:58:25.376Z,1.50
2022-11-08T13:00:55.770Z,1.73
2022-11-08T13:03:49.399Z,1.50
2022-11-08T13:06:20.436Z,1.30
2022-11-08T13:08:51.542Z,1.70
2022-11-08T13:11:22.361Z,1.97
2022-11-08T13:13:51.102Z,1.50
2022-11-08T13:16:21.136Z,1.40
2022-11-08T13:18:52.242Z,1.50
2022-11-08T13:21:47.472Z,1.40
2022-11-08T13:24:45.296Z,1.60
2022-11-08T13:27:31.620Z,1.30
2022-11-08T13:30:02.092Z,1.57
2022-11-08T13:32:41.400Z,1.50
2022-11-08T13:35:13.426Z,1.67
2022-11-08T13:38:01.128Z,1.50
2022-11-08T13:40:38.708Z,1.57
2022-11-08T13:43:26.520Z,1.60
2022-11-08T13:45:54.548Z,1.33
2022-11-08T13:48:43.040Z,1.53
2022-11-08T13:51:24.442Z,1.43
2022-11-08T13:53:54.442Z,1.50
2022-11-08T13:56:47.702Z,1.90
2022-11-08T13:59:49.818Z,1.83
2022-11-08T14:02:37.007Z,1.70
2022-11-08T14:05:32.853Z,1.57
2022-11-08T14:08:19.357Z,1.70
2022-11-08T14:11:05.041Z,1.50
2022-11-08T14:13:35.459Z,1.40
2022-11-08T14:16:04.193Z,1.90
2022-11-08T14:18:32.848Z,1.83
2022-11-08T14:21:02.390Z,1.73
2022-11-08T14:23:31.590Z,1.83
2022-11-08T14:26:01.345Z,1.60
2022-11-08T14:28:30.319Z,2.00
2022-11-08T14:30:58.504Z,1.73
2022-11-08T14:33:27.221Z,1.20
2022-11-08T14:35:59.158Z,1.37
2022-11-08T14:38:29.497Z,1.60
2022-11-08T14:40:58.920Z,1.67
2022-11-08T14:43:27.472Z,1.73
2022-11-08T14:45:58.027Z,1.73
2022-11-08T14:48:29.095Z,1.43
2022-11-08T14:51:00.336Z,1.60
2022-11-08T14:53:30.426Z,1.43
2022-11-08T14:56:18.760Z,1.60
2022-11-08T14:58:47.650Z,1.63
2022-11-08T15:01:16.083Z,1.73
2022-11-08T15:03:46.590Z,1.87
2022-11-08T15:06:14.716Z,1.87
2022-11-08T15:08:50.446Z,1.67
2022-11-08T15:11:28.502Z,1.60
2022-11-08T15:13:58.739Z,1.60
2022-11-08T15:16:26.715Z,1.63
2022-11-08T15:18:54.905Z,1.67
2022-11-08T15:21:29.465Z,1.60
2022-11-08T15:24:12.814Z,1.97
2022-11-08T15:26:41.129Z,1.50
2022-11-08T15:29:16.621Z,1.60
2022-11-08T15:31:46.639Z,1.50
2022-11-08T15:34:21.261Z,1.83
2022-11-08T15:36:49.652Z,1.80
2022-11-08T15:39:25.858Z,1.87
2022-11-08T15:42:00.630Z,1.80
2022-11-08T15:44:28.581Z,2.37
2022-11-08T15:46:57.183Z,1.90
2022-11-08T15:49:25.807Z,1.83
2022-11-08T15:51:54.823Z,1.83
2022-11-08T15:54:23.395Z,1.93
2022-11-08T15:56:53.711Z,1.50
2022-11-08T15:59:23.595Z,1.67
2022-11-08T16:01:54.462Z,1.73
2022-11-08T16:04:22.528Z,1.70
2022-11-08T16:06:51.056Z,1.80
2022-11-08T16:09:19.098Z,2.10
2022-11-08T16:11:47.254Z,1.70
2022-11-08T16:14:18.598Z,1.70
2022-11-08T16:16:46.795Z,1.83
2022-11-08T16:19:19.741Z,2.00
2022-11-08T16:21:47.994Z,1.53
2022-11-08T16:24:16.038Z,1.43
2022-11-08T16:26:44.292Z,1.60
2022-11-08T16:29:19.744Z,2.13
2022-11-08T16:31:47.819Z,1.77
2022-11-08T16:34:15.852Z,1.87
2022-11-08T16:36:45.078Z,1.70
2022-11-08T16:39:15.812Z,1.83
2022-11-08T16:41:43.998Z,1.60
2022-11-08T16:44:12.235Z,1.60
2022-11-08T16:46:41.634Z,1.40
2022-11-08T16:49:18.317Z,1.90
2022-11-08T16:51:46.163Z,1.57
2022-11-08T16:54:17.870Z,1.80
2022-11-08T16:56:46.000Z,1.80
2022-11-08T16:59:15.439Z,1.50
2022-11-08T17:01:45.020Z,1.60
2022-11-08T17:04:13.006Z,2.00
2022-11-08T17:06:41.055Z,1.63
2022-11-08T17:09:09.325Z,1.90
2022-11-08T17:11:39.604Z,1.80
2022-11-08T17:14:07.666Z,1.90
2022-11-08T17:16:35.702Z,1.87
2022-11-08T17:19:05.785Z,1.87
2022-11-08T17:21:48.791Z,1.60
2022-11-08T17:24:21.557Z,1.60
2022-11-08T17:26:49.618Z,1.87
2022-11-08T17:29:17.387Z,1.57
2022-11-08T17:31:45.562Z,1.70
2022-11-08T17:34:14.805Z,1.57
2022-11-08T17:36:42.578Z,1.70
2022-11-08T17:39:12.429Z,1.50
2022-11-08T17:41:41.002Z,1.47
2022-11-08T17:44:09.075Z,1.40
2022-11-08T17:46:37.298Z,1.80
2022-11-08T17:49:05.305Z,1.80
2022-11-08T17:51:34.763Z,1.90
2022-11-08T17:54:02.645Z,2.23
2022-11-08T17:56:31.031Z,1.97
2022-11-08T17:58:59.030Z,1.93
2022-11-08T18:01:27.210Z,1.60
2022-11-08T18:03:55.620Z,1.80
2022-11-08T18:06:23.660Z,2.00
2022-11-08T18:08:53.184Z,1.97
2022-11-08T18:11:20.975Z,2.03
2022-11-08T18:13:49.000Z,2.07
2022-11-08T18:16:17.547Z,1.67
2022-11-08T18:18:46.306Z,2.37
2022-11-08T18:21:14.437Z,2.20
2022-11-08T18:23:42.495Z,1.80
2022-11-08T18:26:11.865Z,2.23
2022-11-08T18:28:40.440Z,2.03
2022-11-08T18:31:09.289Z,2.10
2022-11-08T18:33:37.711Z,1.97
2022-11-08T18:36:06.401Z,2.10
2022-11-08T18:38:35.521Z,1.80
2022-11-08T18:41:03.558Z,2.00
2022-11-08T18:43:32.699Z,2.00
2022-11-08T18:46:03.897Z,1.97
2022-11-08T18:48:35.899Z,1.90
2022-11-08T18:51:03.880Z,1.83
2022-11-08T18:53:31.718Z,2.00
2022-11-08T18:55:59.453Z,1.77
2022-11-08T18:58:27.351Z,1.90
2022-11-08T19:00:56.980Z,2.23
2022-11-08T19:03:25.061Z,1.80
2022-11-08T19:05:52.975Z,2.00
2022-11-08T19:08:21.925Z,1.90
2022-11-08T19:10:51.062Z,1.90
2022-11-08T19:13:19.178Z,1.80
2022-11-08T19:15:47.183Z,1.83
2022-11-08T19:18:16.308Z,2.00
2022-11-08T19:20:44.181Z,2.10
2022-11-08T19:23:12.202Z,1.90
2022-11-08T19:25:40.161Z,2.00
2022-11-08T19:28:08.080Z,1.90
2022-11-08T19:30:36.210Z,2.07
2022-11-08T19:33:04.087Z,1.97
2022-11-08T19:35:33.166Z,1.87
2022-11-08T19:38:01.663Z,2.30
2022-11-08T19:40:32.231Z,2.17
2022-11-08T19:43:00.667Z,2.07
2022-11-08T19:45:28.476Z,2.10
2022-11-08T19:47:56.477Z,2.30
2022-11-08T19:50:24.358Z,2.23
2022-11-08T19:52:53.500Z,2.27
2022-11-08T19:55:21.427Z,1.80
2022-11-08T19:57:49.595Z,1.87
2022-11-08T20:00:18.709Z,2.20
2022-11-08T20:02:46.695Z,2.03
2022-11-08T20:05:14.525Z,2.37
2022-11-08T20:07:45.568Z,2.13
2022-11-08T20:10:14.912Z,1.90
2022-11-08T20:12:43.085Z,2.37
2022-11-08T20:15:11.536Z,2.33
2022-11-08T20:17:39.489Z,2.43
2022-11-08T20:20:08.195Z,2.13
2022-11-08T20:22:35.991Z,2.37
2022-11-08T20:25:03.770Z,2.10
2022-11-08T20:27:33.352Z,1.90
2022-11-08T20:30:01.173Z,2.17
2022-11-08T20:32:29.124Z,1.87
2022-11-08T20:34:58.710Z,2.60
2022-11-08T20:37:27.372Z,2.00
2022-11-08T20:39:55.329Z,2.00
2022-11-08T20:42:24.522Z,2.00
2022-11-08T20:44:53.960Z,2.20
2022-11-08T20:47:22.227Z,2.17
2022-11-08T20:49:50.167Z,2.13
2022-11-08T20:52:22.896Z,2.03
2022-11-08T20:54:50.805Z,2.03
2022-11-08T20:57:18.724Z,2.10
2022-11-08T20:59:46.714Z,2.07
2022-11-08T21:02:16.215Z,1.90
2022-11-08T21:04:44.171Z,2.20
2022-11-08T21:10:20.237Z,2.20
2022-11-08T21:12:48.286Z,2.10
2022-11-08T21:15:16.397Z,2.00
2022-11-08T21:17:45.867Z,2.20
2022-11-08T21:20:13.907Z,2.20
2022-11-08T21:22:41.977Z,2.33
2022-11-08T21:25:10.750Z,1.97
2022-11-08T21:27:38.785Z,2.20
2022-11-08T21:30:07.843Z,2.07
2022-11-08T21:32:35.916Z,2.30
2022-11-08T21:35:05.836Z,2.10
2022-11-08T21:37:33.963Z,2.00
2022-11-08T21:40:02.022Z,2.37
2022-11-08T21:42:30.870Z,2.10
2022-11-08T21:45:01.134Z,2.33
2022-11-08T21:47:29.222Z,2.10
2022-11-08T21:49:57.016Z,2.23
2022-11-08T21:52:26.185Z,2.17
2022-11-08T21:54:53.989Z,2.30
2022-11-08T21:57:22.470Z,1.83
2022-11-08T21:59:50.598Z,2.20
2022-11-08T22:02:18.619Z,2.10
2022-11-08T22:04:46.791Z,2.40
2022-11-08T22:07:14.924Z,2.20
2022-11-08T22:09:44.465Z,2.33
2022-11-08T22:12:12.538Z,2.50
2022-11-08T22:14:40.570Z,2.10
2022-11-08T22:17:08.622Z,2.10
2022-11-08T22:19:36.540Z,2.70
2022-11-08T22:22:05.349Z,1.83
2022-11-08T22:24:33.322Z,1.97
2022-11-08T22:27:03.393Z,2.13
2022-11-08T22:29:31.435Z,2.17
2022-11-08T22:31:59.496Z,2.80
2022-11-08T22:34:27.533Z,2.13
2022-11-08T22:36:55.657Z,2.57
2022-11-08T22:39:24.126Z,2.13
2022-11-08T22:41:52.919Z,2.03
2022-11-08T22:44:22.484Z,1.97
2022-11-08T22:46:50.678Z,2.10
2022-11-08T22:49:18.703Z,2.13
2022-11-08T22:51:46.711Z,2.20
2022-11-08T22:54:15.211Z,2.33
2022-11-08T22:56:43.264Z,2.13
2022-11-08T22:59:11.292Z,2.00
2022-11-08T23:01:40.787Z,2.13
2022-11-08T23:04:11.773Z,2.13
2022-11-08T23:06:40.713Z,2.27
2022-11-08T23:09:08.895Z,2.00
2022-11-08T23:11:54.556Z,1.93
2022-11-08T23:14:39.365Z,2.00
2022-11-08T23:17:09.034Z,2.23
2022-11-08T23:19:54.825Z,1.80
2022-11-08T23:22:40.092Z,2.13
2022-11-08T23:25:08.973Z,1.70
2022-11-08T23:27:54.638Z,1.90
2022-11-08T23:30:39.828Z,2.53
2022-11-08T23:33:09.127Z,2.10
2022-11-08T23:35:37.576Z,1.80
2022-11-08T23:38:05.667Z,2.00
2022-11-08T23:40:51.739Z,2.20
2022-11-08T23:43:40.188Z,1.83
2022-11-08T23:46:08.938Z,2.00
2022-11-08T23:48:38.008Z,2.00
2022-11-08T23:51:06.143Z,2.60
2022-11-08T23:53:34.353Z,1.97
2022-11-08T23:56:02.483Z,2.03
2022-11-08T23:58:30.227Z,2.00
